sensor_id;sensor_type;location;lat;lon;timestamp;temperature;humidity
54190;DHT22;40340;53.208;6.582;2022-07-23T00:00:58;15.80;99.90
54190;DHT22;40340;53.208;6.582;2022-07-23T00:03:24;15.80;99.90
54190;DHT22;40340;53.208;6.582;2022-07-23T00:05:50;16.10;99.90
54190;DHT22;40340;53.208;6.582;2022-07-23T00:08:16;15.80;99.90
54190;DHT22;40340;53.208;6.582;2022-07-23T00:10:41;15.80;99.90
54190;DHT22;40340;53.208;6.582;2022-07-23T00:13:07;15.80;99.90
54190;DHT22;40340;53.208;6.582;2022-07-23T00:15:33;15.80;99.90
54190;DHT22;40340;53.208;6.582;2022-07-23T00:17:59;15.70;99.90
54190;DHT22;40340;53.208;6.582;2022-07-23T00:20:25;15.70;99.90
54190;DHT22;40340;53.208;6.582;2022-07-23T00:22:53;15.70;99.90
54190;DHT22;40340;53.208;6.582;2022-07-23T00:25:20;15.70;99.90
54190;DHT22;40340;53.208;6.582;2022-07-23T00:27:45;15.70;99.90
54190;DHT22;40340;53.208;6.582;2022-07-23T00:30:12;15.70;99.90
54190;DHT22;40340;53.208;6.582;2022-07-23T00:32:52;15.60;99.90
54190;DHT22;40340;53.208;6.582;2022-07-23T00:35:21;15.60;99.90
54190;DHT22;40340;53.208;6.582;2022-07-23T00:37:47;15.50;99.90
54190;DHT22;40340;53.208;6.582;2022-07-23T00:40:13;15.50;99.90
54190;DHT22;40340;53.208;6.582;2022-07-23T00:42:39;15.60;99.90
54190;DHT22;40340;53.208;6.582;2022-07-23T00:45:06;15.50;99.90
54190;DHT22;40340;53.208;6.582;2022-07-23T00:47:32;15.50;99.90
54190;DHT22;40340;53.208;6.582;2022-07-23T00:49:57;15.50;99.90
54190;DHT22;40340;53.208;6.582;2022-07-23T00:52:23;15.40;99.90
54190;DHT22;40340;53.208;6.582;2022-07-23T00:54:49;15.40;99.90
54190;DHT22;40340;53.208;6.582;2022-07-23T00:57:15;15.40;99.90
54190;DHT22;40340;53.208;6.582;2022-07-23T00:59:41;15.40;99.90
54190;DHT22;40340;53.208;6.582;2022-07-23T01:02:07;15.30;99.90
54190;DHT22;40340;53.208;6.582;2022-07-23T01:04:33;15.30;99.90
54190;DHT22;40340;53.208;6.582;2022-07-23T01:07:00;15.30;99.90
54190;DHT22;40340;53.208;6.582;2022-07-23T01:09:26;15.20;99.90
54190;DHT22;40340;53.208;6.582;2022-07-23T01:11:54;15.30;99.90
54190;DHT22;40340;53.208;6.582;2022-07-23T01:14:20;15.20;99.90
54190;DHT22;40340;53.208;6.582;2022-07-23T01:16:48;15.30;99.90
54190;DHT22;40340;53.208;6.582;2022-07-23T01:19:14;15.20;99.90
54190;DHT22;40340;53.208;6.582;2022-07-23T01:21:48;15.20;99.90
54190;DHT22;40340;53.208;6.582;2022-07-23T01:24:16;15.20;99.90
54190;DHT22;40340;53.208;6.582;2022-07-23T01:26:44;15.30;99.90
54190;DHT22;40340;53.208;6.582;2022-07-23T01:29:10;15.30;99.90
54190;DHT22;40340;53.208;6.582;2022-07-23T01:31:36;15.20;99.90
54190;DHT22;40340;53.208;6.582;2022-07-23T01:34:02;15.20;99.90
54190;DHT22;40340;53.208;6.582;2022-07-23T01:36:28;15.20;99.90
54190;DHT22;40340;53.208;6.582;2022-07-23T01:38:54;15.20;99.90
54190;DHT22;40340;53.208;6.582;2022-07-23T01:41:19;15.20;99.90
54190;DHT22;40340;53.208;6.582;2022-07-23T01:43:45;15.20;99.90
54190;DHT22;40340;53.208;6.582;2022-07-23T01:46:11;15.20;99.90
54190;DHT22;40340;53.208;6.582;2022-07-23T01:48:37;15.20;99.90
54190;DHT22;40340;53.208;6.582;2022-07-23T01:51:03;15.20;99.90
54190;DHT22;40340;53.208;6.582;2022-07-23T01:53:29;15.20;99.90
54190;DHT22;40340;53.208;6.582;2022-07-23T01:55:57;15.20;99.90
54190;DHT22;40340;53.208;6.582;2022-07-23T01:58:23;15.20;99.90
54190;DHT22;40340;53.208;6.582;2022-07-23T02:00:49;15.20;99.90
54190;DHT22;40340;53.208;6.582;2022-07-23T02:03:14;15.10;99.90
54190;DHT22;40340;53.208;6.582;2022-07-23T02:05:40;15.20;99.90
54190;DHT22;40340;53.208;6.582;2022-07-23T02:08:06;15.10;99.90
54190;DHT22;40340;53.208;6.582;2022-07-23T02:10:32;15.10;99.90
54190;DHT22;40340;53.208;6.582;2022-07-23T02:12:57;15.10;99.90
54190;DHT22;40340;53.208;6.582;2022-07-23T02:15:23;15.10;99.90
54190;DHT22;40340;53.208;6.582;2022-07-23T02:17:49;15.00;99.90
54190;DHT22;40340;53.208;6.582;2022-07-23T02:20:15;14.90;99.90
54190;DHT22;40340;53.208;6.582;2022-07-23T02:22:40;15.00;99.90
54190;DHT22;40340;53.208;6.582;2022-07-23T02:25:07;14.90;99.90
54190;DHT22;40340;53.208;6.582;2022-07-23T02:27:34;14.90;99.90
54190;DHT22;40340;53.208;6.582;2022-07-23T02:30:00;14.80;99.90
54190;DHT22;40340;53.208;6.582;2022-07-23T02:32:25;14.90;99.90
54190;DHT22;40340;53.208;6.582;2022-07-23T02:34:51;14.70;99.90
54190;DHT22;40340;53.208;6.582;2022-07-23T02:37:17;14.90;99.90
54190;DHT22;40340;53.208;6.582;2022-07-23T02:39:43;14.90;99.90
54190;DHT22;40340;53.208;6.582;2022-07-23T02:42:08;14.90;99.90
54190;DHT22;40340;53.208;6.582;2022-07-23T02:44:34;14.90;99.90
54190;DHT22;40340;53.208;6.582;2022-07-23T02:47:00;14.80;99.90
54190;DHT22;40340;53.208;6.582;2022-07-23T02:49:25;14.80;99.90
54190;DHT22;40340;53.208;6.582;2022-07-23T02:51:51;14.70;99.90
54190;DHT22;40340;53.208;6.582;2022-07-23T02:54:17;14.70;99.90
54190;DHT22;40340;53.208;6.582;2022-07-23T02:56:43;14.70;99.90
54190;DHT22;40340;53.208;6.582;2022-07-23T02:59:09;14.90;99.90
54190;DHT22;40340;53.208;6.582;2022-07-23T03:01:35;14.70;99.90
54190;DHT22;40340;53.208;6.582;2022-07-23T03:04:00;14.80;99.90
54190;DHT22;40340;53.208;6.582;2022-07-23T03:06:26;14.80;99.90
54190;DHT22;40340;53.208;6.582;2022-07-23T03:08:52;14.80;99.90
54190;DHT22;40340;53.208;6.582;2022-07-23T03:11:17;14.80;99.90
54190;DHT22;40340;53.208;6.582;2022-07-23T03:13:43;14.90;99.90
54190;DHT22;40340;53.208;6.582;2022-07-23T03:16:09;14.90;99.90
54190;DHT22;40340;53.208;6.582;2022-07-23T03:18:35;14.80;99.90
54190;DHT22;40340;53.208;6.582;2022-07-23T03:21:00;14.80;99.90
54190;DHT22;40340;53.208;6.582;2022-07-23T03:23:26;14.80;99.90
54190;DHT22;40340;53.208;6.582;2022-07-23T03:25:52;14.80;99.90
54190;DHT22;40340;53.208;6.582;2022-07-23T03:28:18;14.80;99.90
54190;DHT22;40340;53.208;6.582;2022-07-23T03:30:45;14.90;99.90
54190;DHT22;40340;53.208;6.582;2022-07-23T03:33:15;14.80;99.90
54190;DHT22;40340;53.208;6.582;2022-07-23T03:35:42;14.80;99.90
54190;DHT22;40340;53.208;6.582;2022-07-23T03:38:08;14.80;99.90
54190;DHT22;40340;53.208;6.582;2022-07-23T03:40:33;14.80;99.90
54190;DHT22;40340;53.208;6.582;2022-07-23T03:42:59;14.80;99.90
54190;DHT22;40340;53.208;6.582;2022-07-23T03:45:25;14.80;99.90
54190;DHT22;40340;53.208;6.582;2022-07-23T03:47:50;14.90;99.90
54190;DHT22;40340;53.208;6.582;2022-07-23T03:50:16;14.80;99.90
54190;DHT22;40340;53.208;6.582;2022-07-23T03:52:41;14.80;99.90
54190;DHT22;40340;53.208;6.582;2022-07-23T03:55:07;14.80;99.90
54190;DHT22;40340;53.208;6.582;2022-07-23T03:57:33;14.80;99.90
54190;DHT22;40340;53.208;6.582;2022-07-23T03:59:59;14.80;99.90
54190;DHT22;40340;53.208;6.582;2022-07-23T04:02:24;14.70;99.90
54190;DHT22;40340;53.208;6.582;2022-07-23T04:04:50;14.80;99.90
54190;DHT22;40340;53.208;6.582;2022-07-23T04:07:16;14.70;99.90
54190;DHT22;40340;53.208;6.582;2022-07-23T04:09:43;14.80;99.90
54190;DHT22;40340;53.208;6.582;2022-07-23T04:12:09;14.70;99.90
54190;DHT22;40340;53.208;6.582;2022-07-23T04:14:35;14.80;99.90
54190;DHT22;40340;53.208;6.582;2022-07-23T04:17:01;14.70;99.90
54190;DHT22;40340;53.208;6.582;2022-07-23T04:19:26;14.80;99.90
54190;DHT22;40340;53.208;6.582;2022-07-23T04:21:52;14.80;99.90
54190;DHT22;40340;53.208;6.582;2022-07-23T04:24:18;14.80;99.90
54190;DHT22;40340;53.208;6.582;2022-07-23T04:26:45;14.80;99.90
54190;DHT22;40340;53.208;6.582;2022-07-23T04:29:10;14.90;99.90
54190;DHT22;40340;53.208;6.582;2022-07-23T04:31:36;14.80;99.90
54190;DHT22;40340;53.208;6.582;2022-07-23T04:34:02;14.90;99.90
54190;DHT22;40340;53.208;6.582;2022-07-23T04:36:27;14.90;99.90
54190;DHT22;40340;53.208;6.582;2022-07-23T04:38:53;14.90;99.90
54190;DHT22;40340;53.208;6.582;2022-07-23T04:41:19;14.90;99.90
54190;DHT22;40340;53.208;6.582;2022-07-23T04:43:45;15.00;99.90
54190;DHT22;40340;53.208;6.582;2022-07-23T04:46:10;14.90;99.90
54190;DHT22;40340;53.208;6.582;2022-07-23T04:48:36;14.90;99.90
54190;DHT22;40340;53.208;6.582;2022-07-23T04:51:02;14.90;99.90
54190;DHT22;40340;53.208;6.582;2022-07-23T04:53:28;15.00;99.90
54190;DHT22;40340;53.208;6.582;2022-07-23T04:55:54;15.00;99.90
54190;DHT22;40340;53.208;6.582;2022-07-23T04:58:19;15.00;99.90
54190;DHT22;40340;53.208;6.582;2022-07-23T05:00:46;15.00;99.90
54190;DHT22;40340;53.208;6.582;2022-07-23T05:03:11;15.00;99.90
54190;DHT22;40340;53.208;6.582;2022-07-23T05:05:37;15.00;99.90
54190;DHT22;40340;53.208;6.582;2022-07-23T05:08:03;14.90;99.90
54190;DHT22;40340;53.208;6.582;2022-07-23T05:10:28;14.90;99.90
54190;DHT22;40340;53.208;6.582;2022-07-23T05:12:54;15.00;99.90
54190;DHT22;40340;53.208;6.582;2022-07-23T05:15:20;14.90;99.90
54190;DHT22;40340;53.208;6.582;2022-07-23T05:17:45;15.00;99.90
54190;DHT22;40340;53.208;6.582;2022-07-23T05:20:11;15.00;99.90
54190;DHT22;40340;53.208;6.582;2022-07-23T05:22:37;15.20;99.90
54190;DHT22;40340;53.208;6.582;2022-07-23T05:25:02;15.10;99.90
54190;DHT22;40340;53.208;6.582;2022-07-23T05:27:30;15.20;99.90
54190;DHT22;40340;53.208;6.582;2022-07-23T05:29:55;15.30;99.90
54190;DHT22;40340;53.208;6.582;2022-07-23T05:32:21;15.40;99.90
54190;DHT22;40340;53.208;6.582;2022-07-23T05:34:46;15.40;99.90
54190;DHT22;40340;53.208;6.582;2022-07-23T05:37:12;15.40;99.90
54190;DHT22;40340;53.208;6.582;2022-07-23T05:39:38;15.50;99.90
54190;DHT22;40340;53.208;6.582;2022-07-23T05:42:03;15.40;99.90
54190;DHT22;40340;53.208;6.582;2022-07-23T05:44:29;15.40;99.90
54190;DHT22;40340;53.208;6.582;2022-07-23T05:46:54;15.40;99.90
54190;DHT22;40340;53.208;6.582;2022-07-23T05:49:20;15.30;99.90
54190;DHT22;40340;53.208;6.582;2022-07-23T05:51:45;15.30;99.90
54190;DHT22;40340;53.208;6.582;2022-07-23T05:54:11;15.40;99.90
54190;DHT22;40340;53.208;6.582;2022-07-23T05:56:37;15.50;99.90
54190;DHT22;40340;53.208;6.582;2022-07-23T05:59:02;15.60;99.90
54190;DHT22;40340;53.208;6.582;2022-07-23T06:01:28;15.70;99.90
54190;DHT22;40340;53.208;6.582;2022-07-23T06:03:54;15.70;99.90
54190;DHT22;40340;53.208;6.582;2022-07-23T06:06:19;15.80;99.90
54190;DHT22;40340;53.208;6.582;2022-07-23T06:08:45;15.90;99.90
54190;DHT22;40340;53.208;6.582;2022-07-23T06:11:11;15.90;99.90
54190;DHT22;40340;53.208;6.582;2022-07-23T06:13:36;15.90;99.90
54190;DHT22;40340;53.208;6.582;2022-07-23T06:16:02;16.00;99.90
54190;DHT22;40340;53.208;6.582;2022-07-23T06:18:28;16.00;99.90
54190;DHT22;40340;53.208;6.582;2022-07-23T06:20:53;16.00;99.90
54190;DHT22;40340;53.208;6.582;2022-07-23T06:23:20;16.10;99.90
54190;DHT22;40340;53.208;6.582;2022-07-23T06:25:45;16.10;99.90
54190;DHT22;40340;53.208;6.582;2022-07-23T06:28:11;16.10;99.90
54190;DHT22;40340;53.208;6.582;2022-07-23T06:30:37;16.20;99.90
54190;DHT22;40340;53.208;6.582;2022-07-23T06:33:03;16.20;99.90
54190;DHT22;40340;53.208;6.582;2022-07-23T06:35:29;16.30;99.90
54190;DHT22;40340;53.208;6.582;2022-07-23T06:37:54;16.40;99.90
54190;DHT22;40340;53.208;6.582;2022-07-23T06:40:20;16.40;99.90
54190;DHT22;40340;53.208;6.582;2022-07-23T06:42:46;16.40;99.90
54190;DHT22;40340;53.208;6.582;2022-07-23T06:45:12;16.40;99.90
54190;DHT22;40340;53.208;6.582;2022-07-23T06:47:37;16.50;99.90
54190;DHT22;40340;53.208;6.582;2022-07-23T06:50:04;16.50;99.90
54190;DHT22;40340;53.208;6.582;2022-07-23T06:52:30;16.40;99.90
54190;DHT22;40340;53.208;6.582;2022-07-23T06:54:55;16.40;99.90
54190;DHT22;40340;53.208;6.582;2022-07-23T06:57:21;16.40;99.90
54190;DHT22;40340;53.208;6.582;2022-07-23T06:59:46;16.30;99.90
54190;DHT22;40340;53.208;6.582;2022-07-23T07:02:12;16.40;99.90
54190;DHT22;40340;53.208;6.582;2022-07-23T07:04:38;16.40;99.90
54190;DHT22;40340;53.208;6.582;2022-07-23T07:07:03;16.40;99.90
54190;DHT22;40340;53.208;6.582;2022-07-23T07:09:29;16.40;99.90
54190;DHT22;40340;53.208;6.582;2022-07-23T07:11:55;16.40;99.90
54190;DHT22;40340;53.208;6.582;2022-07-23T07:14:21;16.50;99.90
54190;DHT22;40340;53.208;6.582;2022-07-23T07:16:46;16.50;99.90
54190;DHT22;40340;53.208;6.582;2022-07-23T07:19:12;16.60;99.90
54190;DHT22;40340;53.208;6.582;2022-07-23T07:21:38;16.60;99.90
54190;DHT22;40340;53.208;6.582;2022-07-23T07:24:03;16.70;99.90
54190;DHT22;40340;53.208;6.582;2022-07-23T07:26:30;16.80;99.90
54190;DHT22;40340;53.208;6.582;2022-07-23T07:28:56;16.90;99.90
54190;DHT22;40340;53.208;6.582;2022-07-23T07:31:22;17.00;99.90
54190;DHT22;40340;53.208;6.582;2022-07-23T07:33:47;17.30;99.90
54190;DHT22;40340;53.208;6.582;2022-07-23T07:36:13;17.30;99.90
54190;DHT22;40340;53.208;6.582;2022-07-23T07:38:39;17.60;99.90
54190;DHT22;40340;53.208;6.582;2022-07-23T07:41:04;17.80;99.90
54190;DHT22;40340;53.208;6.582;2022-07-23T07:43:30;17.70;99.90
54190;DHT22;40340;53.208;6.582;2022-07-23T07:45:55;17.90;99.90
54190;DHT22;40340;53.208;6.582;2022-07-23T07:48:21;17.80;99.90
54190;DHT22;40340;53.208;6.582;2022-07-23T07:50:47;17.80;99.90
54190;DHT22;40340;53.208;6.582;2022-07-23T07:53:12;17.90;99.90
54190;DHT22;40340;53.208;6.582;2022-07-23T07:55:38;17.90;99.90
54190;DHT22;40340;53.208;6.582;2022-07-23T07:58:03;18.00;99.90
54190;DHT22;40340;53.208;6.582;2022-07-23T08:00:29;18.00;99.90
54190;DHT22;40340;53.208;6.582;2022-07-23T08:02:55;18.10;99.90
54190;DHT22;40340;53.208;6.582;2022-07-23T08:05:24;18.10;99.90
54190;DHT22;40340;53.208;6.582;2022-07-23T08:07:50;18.20;99.90
54190;DHT22;40340;53.208;6.582;2022-07-23T08:10:17;18.30;99.90
54190;DHT22;40340;53.208;6.582;2022-07-23T08:12:43;18.30;99.90
54190;DHT22;40340;53.208;6.582;2022-07-23T08:15:12;18.40;99.90
54190;DHT22;40340;53.208;6.582;2022-07-23T08:17:38;18.20;99.90
54190;DHT22;40340;53.208;6.582;2022-07-23T08:20:05;18.20;99.90
54190;DHT22;40340;53.208;6.582;2022-07-23T08:22:54;18.20;99.90
54190;DHT22;40340;53.208;6.582;2022-07-23T08:25:22;18.30;99.90
54190;DHT22;40340;53.208;6.582;2022-07-23T08:27:49;18.40;99.90
54190;DHT22;40340;53.208;6.582;2022-07-23T08:30:15;18.50;99.90
54190;DHT22;40340;53.208;6.582;2022-07-23T08:32:52;18.50;99.90
54190;DHT22;40340;53.208;6.582;2022-07-23T08:35:24;18.50;99.90
54190;DHT22;40340;53.208;6.582;2022-07-23T08:37:50;18.60;99.90
54190;DHT22;40340;53.208;6.582;2022-07-23T08:40:15;18.70;99.90
54190;DHT22;40340;53.208;6.582;2022-07-23T08:42:41;18.90;99.90
54190;DHT22;40340;53.208;6.582;2022-07-23T08:45:08;19.00;99.90
54190;DHT22;40340;53.208;6.582;2022-07-23T08:47:37;19.10;99.90
54190;DHT22;40340;53.208;6.582;2022-07-23T08:50:03;19.10;99.90
54190;DHT22;40340;53.208;6.582;2022-07-23T08:52:29;19.10;99.90
54190;DHT22;40340;53.208;6.582;2022-07-23T08:54:56;19.00;99.90
54190;DHT22;40340;53.208;6.582;2022-07-23T08:57:22;19.00;99.90
54190;DHT22;40340;53.208;6.582;2022-07-23T08:59:48;18.90;99.90
54190;DHT22;40340;53.208;6.582;2022-07-23T09:02:13;18.90;99.90
54190;DHT22;40340;53.208;6.582;2022-07-23T09:04:39;18.90;99.90
54190;DHT22;40340;53.208;6.582;2022-07-23T09:07:05;19.00;99.90
54190;DHT22;40340;53.208;6.582;2022-07-23T09:09:30;19.00;99.90
54190;DHT22;40340;53.208;6.582;2022-07-23T09:12:24;19.30;99.90
54190;DHT22;40340;53.208;6.582;2022-07-23T09:14:51;19.60;99.90
54190;DHT22;40340;53.208;6.582;2022-07-23T09:17:17;19.50;99.90
54190;DHT22;40340;53.208;6.582;2022-07-23T09:19:44;19.40;99.90
54190;DHT22;40340;53.208;6.582;2022-07-23T09:22:24;19.40;99.90
54190;DHT22;40340;53.208;6.582;2022-07-23T09:30:12;19.20;99.90
54190;DHT22;40340;53.208;6.582;2022-07-23T09:32:41;19.30;99.90
54190;DHT22;40340;53.208;6.582;2022-07-23T09:35:07;19.30;99.90
54190;DHT22;40340;53.208;6.582;2022-07-23T09:37:33;19.10;99.90
54190;DHT22;40340;53.208;6.582;2022-07-23T09:40:09;19.20;99.90
54190;DHT22;40340;53.208;6.582;2022-07-23T09:42:55;19.40;99.90
54190;DHT22;40340;53.208;6.582;2022-07-23T09:45:21;19.60;99.90
54190;DHT22;40340;53.208;6.582;2022-07-23T09:47:46;19.70;99.90
54190;DHT22;40340;53.208;6.582;2022-07-23T09:50:12;19.70;99.90
54190;DHT22;40340;53.208;6.582;2022-07-23T09:52:42;19.80;99.90
54190;DHT22;40340;53.208;6.582;2022-07-23T09:55:08;19.90;99.90
54190;DHT22;40340;53.208;6.582;2022-07-23T09:57:34;20.10;99.90
54190;DHT22;40340;53.208;6.582;2022-07-23T10:00:02;20.10;99.90
54190;DHT22;40340;53.208;6.582;2022-07-23T10:02:32;20.00;99.90
54190;DHT22;40340;53.208;6.582;2022-07-23T10:04:58;20.00;99.90
54190;DHT22;40340;53.208;6.582;2022-07-23T10:07:26;20.00;99.90
54190;DHT22;40340;53.208;6.582;2022-07-23T10:09:52;20.00;99.90
54190;DHT22;40340;53.208;6.582;2022-07-23T10:12:19;19.90;99.90
54190;DHT22;40340;53.208;6.582;2022-07-23T10:15:05;19.70;99.90
54190;DHT22;40340;53.208;6.582;2022-07-23T10:17:32;19.70;99.90
54190;DHT22;40340;53.208;6.582;2022-07-23T10:19:58;19.70;99.90
54190;DHT22;40340;53.208;6.582;2022-07-23T10:22:26;19.80;99.90
54190;DHT22;40340;53.208;6.582;2022-07-23T10:24:56;19.90;99.90
54190;DHT22;40340;53.208;6.582;2022-07-23T10:30:22;19.60;99.90
54190;DHT22;40340;53.208;6.582;2022-07-23T10:35:53;19.70;99.90
54190;DHT22;40340;53.208;6.582;2022-07-23T10:38:25;19.90;99.90
54190;DHT22;40340;53.208;6.582;2022-07-23T10:41:01;20.10;99.90
54190;DHT22;40340;53.208;6.582;2022-07-23T10:43:28;20.10;99.90
54190;DHT22;40340;53.208;6.582;2022-07-23T10:45:54;20.00;99.90
54190;DHT22;40340;53.208;6.582;2022-07-23T10:48:26;20.00;99.90
54190;DHT22;40340;53.208;6.582;2022-07-23T10:51:14;20.20;99.90
54190;DHT22;40340;53.208;6.582;2022-07-23T10:59:15;20.80;99.90
54190;DHT22;40340;53.208;6.582;2022-07-23T11:01:41;20.40;99.90
54190;DHT22;40340;53.208;6.582;2022-07-23T11:04:07;20.20;99.90
54190;DHT22;40340;53.208;6.582;2022-07-23T11:15:04;20.50;99.90
54190;DHT22;40340;53.208;6.582;2022-07-23T11:17:36;20.70;99.90
54190;DHT22;40340;53.208;6.582;2022-07-23T11:25:31;20.20;99.90
54190;DHT22;40340;53.208;6.582;2022-07-23T11:28:13;19.90;99.90
54190;DHT22;40340;53.208;6.582;2022-07-23T11:30:44;19.50;99.90
54190;DHT22;40340;53.208;6.582;2022-07-23T11:35:44;19.50;99.90
54190;DHT22;40340;53.208;6.582;2022-07-23T11:38:17;19.40;99.90
54190;DHT22;40340;53.208;6.582;2022-07-23T11:40:49;19.50;99.90
54190;DHT22;40340;53.208;6.582;2022-07-23T11:43:15;19.60;99.90
54190;DHT22;40340;53.208;6.582;2022-07-23T11:45:46;19.60;99.90
54190;DHT22;40340;53.208;6.582;2022-07-23T11:48:19;19.60;99.90
54190;DHT22;40340;53.208;6.582;2022-07-23T11:50:45;19.80;99.90
54190;DHT22;40340;53.208;6.582;2022-07-23T11:53:11;20.00;99.90
54190;DHT22;40340;53.208;6.582;2022-07-23T11:55:37;20.20;99.90
54190;DHT22;40340;53.208;6.582;2022-07-23T11:58:02;20.50;99.90
54190;DHT22;40340;53.208;6.582;2022-07-23T12:00:30;20.80;99.90
54190;DHT22;40340;53.208;6.582;2022-07-23T12:02:59;20.80;99.90
54190;DHT22;40340;53.208;6.582;2022-07-23T12:05:28;20.80;99.90
54190;DHT22;40340;53.208;6.582;2022-07-23T12:07:55;20.90;99.90
54190;DHT22;40340;53.208;6.582;2022-07-23T12:10:30;20.70;99.90
54190;DHT22;40340;53.208;6.582;2022-07-23T12:13:07;20.90;99.90
54190;DHT22;40340;53.208;6.582;2022-07-23T12:15:41;21.40;99.90
54190;DHT22;40340;53.208;6.582;2022-07-23T12:18:10;22.00;99.90
54190;DHT22;40340;53.208;6.582;2022-07-23T12:20:48;22.20;99.90
54190;DHT22;40340;53.208;6.582;2022-07-23T12:23:15;22.60;99.90
54190;DHT22;40340;53.208;6.582;2022-07-23T12:25:44;22.70;99.90
54190;DHT22;40340;53.208;6.582;2022-07-23T12:28:35;23.10;99.90
54190;DHT22;40340;53.208;6.582;2022-07-23T12:31:02;23.00;99.90
54190;DHT22;40340;53.208;6.582;2022-07-23T12:33:39;23.00;99.90
54190;DHT22;40340;53.208;6.582;2022-07-23T12:36:07;23.30;99.90
54190;DHT22;40340;53.208;6.582;2022-07-23T12:38:47;23.50;99.90
54190;DHT22;40340;53.208;6.582;2022-07-23T12:41:14;23.30;99.90
54190;DHT22;40340;53.208;6.582;2022-07-23T12:43:42;22.80;99.90
54190;DHT22;40340;53.208;6.582;2022-07-23T12:46:16;23.00;99.90
54190;DHT22;40340;53.208;6.582;2022-07-23T12:53:48;24.00;99.90
54190;DHT22;40340;53.208;6.582;2022-07-23T12:56:16;23.80;99.90
54190;DHT22;40340;53.208;6.582;2022-07-23T13:04:09;23.20;99.90
54190;DHT22;40340;53.208;6.582;2022-07-23T13:09:07;23.20;99.90
54190;DHT22;40340;53.208;6.582;2022-07-23T13:11:33;23.20;99.90
54190;DHT22;40340;53.208;6.582;2022-07-23T13:14:00;23.40;99.90
54190;DHT22;40340;53.208;6.582;2022-07-23T13:16:27;23.90;99.90
54190;DHT22;40340;53.208;6.582;2022-07-23T13:18:52;24.40;99.90
54190;DHT22;40340;53.208;6.582;2022-07-23T13:21:18;24.40;99.70
54190;DHT22;40340;53.208;6.582;2022-07-23T13:23:44;24.90;99.90
54190;DHT22;40340;53.208;6.582;2022-07-23T13:26:10;25.00;99.40
54190;DHT22;40340;53.208;6.582;2022-07-23T13:28:36;24.80;98.60
54190;DHT22;40340;53.208;6.582;2022-07-23T13:31:01;24.80;98.90
54190;DHT22;40340;53.208;6.582;2022-07-23T13:33:27;24.90;98.50
54190;DHT22;40340;53.208;6.582;2022-07-23T13:35:53;25.40;98.40
54190;DHT22;40340;53.208;6.582;2022-07-23T13:38:20;25.40;97.90
54190;DHT22;40340;53.208;6.582;2022-07-23T13:40:47;25.20;97.10
54190;DHT22;40340;53.208;6.582;2022-07-23T13:43:16;24.80;96.80
54190;DHT22;40340;53.208;6.582;2022-07-23T13:45:42;24.80;97.20
54190;DHT22;40340;53.208;6.582;2022-07-23T13:48:10;24.90;97.80
54190;DHT22;40340;53.208;6.582;2022-07-23T13:50:36;25.10;98.00
54190;DHT22;40340;53.208;6.582;2022-07-23T13:53:06;25.10;98.20
54190;DHT22;40340;53.208;6.582;2022-07-23T13:55:33;25.10;97.30
54190;DHT22;40340;53.208;6.582;2022-07-23T13:57:59;25.00;98.10
54190;DHT22;40340;53.208;6.582;2022-07-23T14:00:27;25.10;98.60
54190;DHT22;40340;53.208;6.582;2022-07-23T14:02:53;25.20;98.50
54190;DHT22;40340;53.208;6.582;2022-07-23T14:05:19;25.00;98.50
54190;DHT22;40340;53.208;6.582;2022-07-23T14:07:45;25.10;97.30
54190;DHT22;40340;53.208;6.582;2022-07-23T14:10:12;25.10;98.30
54190;DHT22;40340;53.208;6.582;2022-07-23T14:12:38;25.10;97.90
54190;DHT22;40340;53.208;6.582;2022-07-23T14:15:05;24.70;97.70
54190;DHT22;40340;53.208;6.582;2022-07-23T14:17:32;24.40;98.10
54190;DHT22;40340;53.208;6.582;2022-07-23T14:19:58;24.00;98.20
54190;DHT22;40340;53.208;6.582;2022-07-23T14:22:24;23.90;98.40
54190;DHT22;40340;53.208;6.582;2022-07-23T14:24:50;23.90;98.60
54190;DHT22;40340;53.208;6.582;2022-07-23T14:27:16;23.80;98.10
54190;DHT22;40340;53.208;6.582;2022-07-23T14:29:42;23.90;98.70
54190;DHT22;40340;53.208;6.582;2022-07-23T14:32:07;24.00;99.00
54190;DHT22;40340;53.208;6.582;2022-07-23T14:34:34;23.70;98.10
54190;DHT22;40340;53.208;6.582;2022-07-23T14:37:00;23.50;98.50
54190;DHT22;40340;53.208;6.582;2022-07-23T14:39:26;23.70;99.00
54190;DHT22;40340;53.208;6.582;2022-07-23T14:41:51;23.70;99.30
54190;DHT22;40340;53.208;6.582;2022-07-23T14:44:17;23.80;99.10
54190;DHT22;40340;53.208;6.582;2022-07-23T14:46:43;23.90;98.80
54190;DHT22;40340;53.208;6.582;2022-07-23T14:49:09;23.80;98.60
54190;DHT22;40340;53.208;6.582;2022-07-23T14:51:35;23.70;98.60
54190;DHT22;40340;53.208;6.582;2022-07-23T14:54:02;23.80;98.40
54190;DHT22;40340;53.208;6.582;2022-07-23T14:56:27;23.40;98.00
54190;DHT22;40340;53.208;6.582;2022-07-23T14:58:53;23.40;98.80
54190;DHT22;40340;53.208;6.582;2022-07-23T15:01:21;23.30;98.90
54190;DHT22;40340;53.208;6.582;2022-07-23T15:03:47;23.40;99.20
54190;DHT22;40340;53.208;6.582;2022-07-23T15:06:13;23.50;99.00
54190;DHT22;40340;53.208;6.582;2022-07-23T15:08:39;23.40;98.90
54190;DHT22;40340;53.208;6.582;2022-07-23T15:11:05;23.30;98.70
54190;DHT22;40340;53.208;6.582;2022-07-23T15:13:30;23.30;99.00
54190;DHT22;40340;53.208;6.582;2022-07-23T15:15:56;23.40;99.20
54190;DHT22;40340;53.208;6.582;2022-07-23T15:18:21;23.50;99.20
54190;DHT22;40340;53.208;6.582;2022-07-23T15:20:47;23.50;99.40
54190;DHT22;40340;53.208;6.582;2022-07-23T15:23:12;23.40;99.50
54190;DHT22;40340;53.208;6.582;2022-07-23T15:25:38;23.50;99.80
54190;DHT22;40340;53.208;6.582;2022-07-23T15:28:04;23.50;99.50
54190;DHT22;40340;53.208;6.582;2022-07-23T15:30:29;23.60;99.40
54190;DHT22;40340;53.208;6.582;2022-07-23T15:32:55;23.40;99.40
54190;DHT22;40340;53.208;6.582;2022-07-23T15:35:23;23.20;99.40
54190;DHT22;40340;53.208;6.582;2022-07-23T15:37:48;23.30;99.30
54190;DHT22;40340;53.208;6.582;2022-07-23T15:40:14;23.40;99.60
54190;DHT22;40340;53.208;6.582;2022-07-23T15:42:40;23.50;99.70
54190;DHT22;40340;53.208;6.582;2022-07-23T15:45:06;23.60;99.70
54190;DHT22;40340;53.208;6.582;2022-07-23T15:47:32;23.70;99.70
54190;DHT22;40340;53.208;6.582;2022-07-23T15:49:57;23.80;99.60
54190;DHT22;40340;53.208;6.582;2022-07-23T15:52:23;23.70;99.40
54190;DHT22;40340;53.208;6.582;2022-07-23T15:54:49;23.50;99.60
54190;DHT22;40340;53.208;6.582;2022-07-23T15:57:15;23.50;99.70
54190;DHT22;40340;53.208;6.582;2022-07-23T15:59:40;23.50;99.80
54190;DHT22;40340;53.208;6.582;2022-07-23T16:02:07;23.40;99.90
54190;DHT22;40340;53.208;6.582;2022-07-23T16:04:33;23.30;99.90
54190;DHT22;40340;53.208;6.582;2022-07-23T16:06:59;23.30;99.90
54190;DHT22;40340;53.208;6.582;2022-07-23T16:09:25;23.50;99.90
54190;DHT22;40340;53.208;6.582;2022-07-23T16:11:51;23.50;99.90
54190;DHT22;40340;53.208;6.582;2022-07-23T16:14:18;23.40;99.80